Amity, Pennsylvania
Current Conditions -  °F | °C
As of 8:55 AM on Thursday 23 Oct 2014 (Local Time) from KAFJ Reporting Station
Overcast Overcast  
Wind Chill: 46°   Ceiling: 1600
Heat Index: 46°   Visibility: 10mi
Dew Point: 41°   Wind: 3mph
Humidity: 81%   Direction: 280°W
Pressure: 30.16"   Gusts: NA
Location:  40.03°N, 80.2°W
Report Text: KAFJ 231255Z AUTO 28003KT 10SM OVC016 08/05 A3016 RMK AO1
Loading
Personal Weather Stations






























Interactive Weather Map New forecast layout! Learn more

10-Day Weather Forecast

Advertisements
Track Severe Weather on mobile